Terminal Aerodrome Forecast
Issued by NWS Cleveland, OH

Home | Current Version | Previous Version | Graphics & Text | Print | Product List | Glossary On
Versions: 1 2 3 4 5 6 7 8 9 10 11 12 13 14 15
000
FTUS41 KCLE 090500
TAFCAK
TAF
KCAK 090532Z 0906/1006 20005KT P6SM VCSH BKN070
     FM090900 24005KT 4SM BR SCT035
     FM091400 29010KT P6SM VCSH BKN035
     FM091900 30010KT P6SM BKN050
     FM100000 33006KT P6SM SCT050=

USA.gov is the U.S. government's official web portal to all federal, state and local government web resources and services.